ELLXEBFN

Guest
Details From ELLX - Luxembourg
To EBFN - KOKSIJDE
Flight Number -
Tags generated
Created
Modified
Stats Distance 162 nm / 301 km
Max Altitude 18,600 ft / 5,669 m
Waypoints 3
Social Downloads 0
Likes 0
Share VATSIM

Download

Looking for another format? Having issues loading an existing format? Contact us
Advertisement - Login to hide

Notes

Basic altitude profile: - Ascent Rate: 2500ft/min - Ascent Speed: 250kts - Cruise Altitude: 35000ft - Cruise Speed: 420kts - Descent Rate: 1500ft/min - Descent Speed: 250kts Options: - Use NATs: yes - Use PACOTS: yes - Use low airways: no - Use high airways: yes

Route

ELLX BFS EBFN

ID Type Via Altitude Latitude Longitude Leg Dist Tot Dist Heading (true) Name
O ELLX APT - 0 ft / 0 m 49.62660˚ 6.21151˚ - 0 nm - Luxembourg
BFS GS - 18,600 ft / 5,669 m 50.24139˚ 4.65306˚ 70 nm 70 nm 302° / 301° GS
O EBFN APT - 0 ft / 0 m 51.09022˚ 2.65293˚ 91 nm 162 nm 305° / 303° KOKSIJDE

Altitude Profile

Advertisement - Login to hide

Weather


0- 5 10 15 20 25 30 35+ Temperature / ° C

Clouds and Precipitation
Forecast for 2017-12-12 18:00 UTC. Updated an hour ago

Ground ~20,000 ft ~40,000 ft Winds

ELLX

Details ICAO ELLX (LUX)
Name Luxembourg
Region Luxembourg
Timezone Europe/Luxembourg (UTC+1.0)
Stats Elevation 1,158 ft / 353 m (AMSL)
Location 49.626599° 6.211506°
Runways 1
Magnetic Variation 1.689° E

METAR

ELLX 121820Z 23007KT 9999 FEW008 M01/M02 Q1014 NOSIG

Decode

TAF

TAF ELLX 121700Z 1218/1324 24010KT 9999 FEW020 PROB30 TEMPO 1218/1220 -SHSNRA BKN015TCU BECMG 1223/1301 18005KT 3000 BR BKN003 BECMG 1306/1309 18015G25KT 3000 -SN BKN005 BKN007 BECMG 1313/1315 7000 -RA BKN015 TEMPO 1313/1318 RA BKN012 BECMG 1320/1322 RA SCT005 BKN007 BECMG 1322/1324 25015G30KT

Decode

Departure Runways

ID Width Length Bearing (true) Bearing (mag) Surface Threshold Offset Overrun Length
06 197 ft / 60 m 13,135 ft / 4,004 m 60.14° 58.45° Asphalt 0 ft / 0 m 0 ft / 0 m
24 197 ft / 60 m 13,135 ft / 4,004 m 240.18° 238.49° Asphalt 0 ft / 0 m 180 ft / 55 m

EBFN

Details ICAO EBFN
Name KOKSIJDE
Region Belgium
Timezone Europe/Brussels (UTC+1.0)
Stats Elevation 20 ft / 6 m (AMSL)
Location 51.090220° 2.652930°
Runways 1
Magnetic Variation 0.524° E

METAR

EBFN 121825Z AUTO 19007KT 9999 BKN220/// 02/01 Q1012 BLU

Decode

TAF

Not found

Destination Runways

ID Width Length Bearing (true) Bearing (mag) Surface Threshold Offset Overrun Length
11 115 ft / 35 m 8,754 ft / 2,668 m 108.24° 107.72° Asphalt 312 ft / 95 m 3 ft / 1 m
29 115 ft / 35 m 8,754 ft / 2,668 m 288.26° 287.74° Asphalt 325 ft / 99 m 0 ft / 0 m